createdAt,value
2018-05-27T02:57:47.640Z,80.40
2018-05-27T05:05:19.463Z,80.40
2018-05-27T05:07:50.218Z,80.20
2018-05-27T05:10:20.532Z,78.20
2018-05-27T05:12:50.848Z,75.50
2018-05-27T05:15:21.175Z,73.30
2018-05-27T05:17:51.619Z,71.40
2018-05-27T05:20:21.924Z,65.60
2018-05-27T05:22:52.375Z,59.50
2018-05-27T05:25:22.695Z,54.60
2018-05-27T05:27:53.015Z,51.40
2018-05-27T05:30:22.939Z,47.90
2018-05-27T05:32:54.239Z,45.60
2018-05-27T05:35:24.511Z,44.20
2018-05-27T05:37:54.820Z,42.10
2018-05-27T05:40:25.238Z,40.80
2018-05-27T05:42:55.220Z,39.30
2018-05-27T05:45:25.191Z,37.80
2018-05-27T05:47:55.087Z,36.90
2018-05-27T05:50:25.416Z,35.80
2018-05-27T05:52:55.856Z,34.70
2018-05-27T05:55:26.169Z,33.90
2018-05-27T05:57:57.949Z,32.60
2018-05-27T06:00:28.463Z,32.10
2018-05-27T06:02:59.399Z,30.50
2018-05-27T06:05:29.776Z,30.30
2018-05-27T06:08:01.067Z,29.30
2018-05-27T06:10:31.407Z,28.90
2018-05-27T06:13:01.727Z,28.50
2018-05-27T06:15:32.043Z,27.80
2018-05-27T06:18:02.344Z,27.40
2018-05-27T06:20:32.300Z,27.80
2018-05-27T06:23:02.608Z,27.70
2018-05-27T06:25:32.531Z,27.90
2018-05-27T06:28:02.847Z,28.40
2018-05-27T06:30:32.822Z,28.40
2018-05-27T06:33:02.887Z,27.90
2018-05-27T06:35:32.866Z,27.50
2018-05-27T06:38:02.820Z,26.90
2018-05-27T06:40:33.139Z,26.60
2018-05-27T06:43:03.580Z,26.30
2018-05-27T06:45:33.500Z,26.00
2018-05-27T06:48:03.811Z,25.00
2018-05-27T06:50:33.859Z,24.90
2018-05-27T06:53:04.214Z,25.30
2018-05-27T06:55:34.579Z,25.90
2018-05-27T06:58:05.039Z,23.80
2018-05-27T07:00:35.391Z,24.00
2018-05-27T07:03:05.872Z,24.00
2018-05-27T07:05:36.242Z,23.70
2018-05-27T07:08:06.638Z,24.00
2018-05-27T07:10:39.504Z,23.90
2018-05-27T07:13:10.339Z,23.40
2018-05-27T07:15:40.679Z,23.30
2018-05-27T07:18:11.019Z,23.40
2018-05-27T07:20:41.431Z,23.70
2018-05-27T07:23:13.707Z,24.00
2018-05-27T07:25:44.011Z,24.00
2018-05-27T07:28:13.960Z,23.70
2018-05-27T07:30:44.355Z,23.70
2018-05-27T07:33:14.272Z,23.00
2018-05-27T07:35:44.594Z,22.50
2018-05-27T07:38:14.924Z,22.00
2018-05-27T07:40:45.356Z,22.50
2018-05-27T07:43:15.383Z,21.00
2018-05-27T07:45:45.903Z,23.00
2018-05-27T07:48:18.231Z,23.80
2018-05-27T07:50:48.936Z,23.70
2018-05-27T07:53:20.110Z,23.10
2018-05-27T07:55:50.468Z,23.00
2018-05-27T07:58:20.875Z,23.30
2018-05-27T08:00:52.139Z,23.50
2018-05-27T08:03:22.240Z,23.60
2018-05-27T08:05:53.677Z,23.30
2018-05-27T08:08:23.950Z,23.50
2018-05-27T08:10:54.383Z,23.90
2018-05-27T08:13:24.294Z,24.60
2018-05-27T08:15:54.842Z,25.50
2018-05-27T08:18:25.153Z,27.20
2018-05-27T08:20:56.558Z,27.90
2018-05-27T08:23:26.509Z,29.10
2018-05-27T08:25:56.933Z,28.40
2018-05-27T08:28:27.744Z,28.60
2018-05-27T08:30:58.104Z,28.10
2018-05-27T08:33:28.545Z,28.90
2018-05-27T08:35:58.844Z,29.00
2018-05-27T08:38:29.695Z,29.00
2018-05-27T08:41:00.175Z,28.60
2018-05-27T08:43:30.587Z,28.50
2018-05-27T08:46:00.883Z,29.40
2018-05-27T08:48:32.072Z,30.10
2018-05-27T08:51:03.048Z,32.20
2018-05-27T08:53:33.615Z,33.70
2018-05-27T08:56:05.139Z,34.60
2018-05-27T08:58:35.599Z,35.30
2018-05-27T09:01:06.322Z,36.30
2018-05-27T09:03:38.916Z,36.70
2018-05-27T09:06:09.703Z,37.30
2018-05-27T09:08:40.712Z,37.70
2018-05-27T09:11:11.313Z,37.50
2018-05-27T09:13:41.861Z,36.10
2018-05-27T09:16:12.303Z,32.30
2018-05-27T09:18:43.095Z,30.10
2018-05-27T09:21:13.422Z,30.10
2018-05-27T09:23:45.087Z,30.80
2018-05-27T09:26:17.441Z,30.00
2018-05-27T09:28:47.763Z,29.20
2018-05-27T09:31:18.816Z,29.20
2018-05-27T09:33:49.524Z,29.40
2018-05-27T09:36:20.397Z,29.90
2018-05-27T09:38:50.754Z,29.40
2018-05-27T09:41:20.826Z,29.60
2018-05-27T09:43:51.339Z,29.20
2018-05-27T09:46:21.382Z,30.10
2018-05-27T09:48:52.669Z,31.20
2018-05-27T09:51:27.198Z,30.60
2018-05-27T09:53:57.564Z,30.70
2018-05-27T09:56:40.716Z,31.10
2018-05-27T09:59:11.779Z,31.50
2018-05-27T10:01:43.489Z,32.30
2018-05-27T10:04:20.887Z,30.20
2018-05-27T10:06:51.310Z,29.50
2018-05-27T10:09:23.547Z,29.20
2018-05-27T10:11:56.622Z,28.50
2018-05-27T10:14:27.734Z,28.50
2018-05-27T10:16:58.956Z,27.00
2018-05-27T10:19:29.779Z,27.50
2018-05-27T10:22:01.144Z,26.60
2018-05-27T10:24:31.573Z,27.10
2018-05-27T10:27:04.512Z,28.60
2018-05-27T10:29:38.123Z,29.10
2018-05-27T10:32:08.888Z,29.80
2018-05-27T10:34:39.481Z,30.00
2018-05-27T10:37:09.963Z,31.30
2018-05-27T10:39:41.822Z,31.10
2018-05-27T10:42:12.258Z,30.50
2018-05-27T10:44:46.408Z,29.30
2018-05-27T10:47:21.206Z,27.10
2018-05-27T10:49:52.600Z,27.40
2018-05-27T10:52:23.937Z,26.60
2018-05-27T10:54:54.833Z,26.10
2018-05-27T10:57:26.091Z,25.60
2018-05-27T10:59:59.007Z,26.40
2018-05-27T11:02:29.179Z,25.80
2018-05-27T11:05:02.876Z,25.60
2018-05-27T11:07:34.763Z,26.10
2018-05-27T11:10:09.093Z,26.70
2018-05-27T11:12:40.868Z,27.80
2018-05-27T11:15:13.972Z,27.50
2018-05-27T11:17:44.716Z,28.00
2018-05-27T11:20:18.217Z,28.20
2018-05-27T11:22:49.147Z,29.40
2018-05-27T11:25:20.729Z,30.00
2018-05-27T11:27:52.411Z,30.00
2018-05-27T11:31:15.840Z,30.60
2018-05-27T11:33:46.091Z,31.00
2018-05-27T11:36:19.846Z,32.10
2018-05-27T11:38:51.257Z,32.00
2018-05-27T11:41:22.788Z,32.40
2018-05-27T11:43:54.820Z,32.20
2018-05-27T11:46:26.575Z,32.00
2018-05-27T11:48:58.929Z,33.00
2018-05-27T11:51:31.186Z,34.70
2018-05-27T11:54:01.650Z,35.30
2018-05-27T11:56:33.032Z,35.50
2018-05-27T11:59:04.217Z,35.30
2018-05-27T12:01:48.047Z,35.30
2018-05-27T12:04:21.776Z,36.10
2018-05-27T12:06:52.310Z,34.80
2018-05-27T12:09:22.463Z,35.10
2018-05-27T12:11:53.595Z,36.70
2018-05-27T12:14:26.383Z,36.20
2018-05-27T12:16:57.388Z,36.10
2018-05-27T12:19:30.282Z,37.10
2018-05-27T12:22:00.580Z,37.80
2018-05-27T12:24:31.393Z,38.70
2018-05-27T12:29:50.302Z,40.00
2018-05-27T12:32:22.268Z,39.30
2018-05-27T12:34:54.067Z,39.70
2018-05-27T12:37:27.039Z,40.60
2018-05-27T12:40:04.795Z,40.60
2018-05-27T12:42:36.527Z,40.60
2018-05-27T12:45:08.660Z,42.00
2018-05-27T12:47:40.441Z,43.30
2018-05-27T12:52:45.209Z,43.70
2018-05-27T13:16:13.932Z,44.60
2018-05-27T13:18:45.828Z,44.00
2018-05-27T14:30:41.679Z,44.80
2018-05-27T15:47:54.432Z,57.10
2018-05-27T15:50:26.932Z,57.40
2018-05-27T15:52:58.570Z,58.60
2018-05-27T15:55:37.084Z,59.90
2018-05-27T15:58:09.326Z,61.40
2018-05-27T16:00:45.783Z,62.50
2018-05-27T16:03:28.867Z,63.00
2018-05-27T16:06:05.225Z,61.90
2018-05-27T16:08:39.676Z,62.20
2018-05-27T16:11:10.996Z,63.00
2018-05-27T16:13:43.992Z,62.10
2018-05-27T16:16:16.221Z,62.80
2018-05-27T16:18:48.861Z,62.60
2018-05-27T16:21:20.567Z,63.30
2018-05-27T16:23:51.499Z,63.20
2018-05-27T16:26:27.331Z,64.20
2018-05-27T16:29:01.819Z,63.80
2018-05-27T16:31:33.513Z,64.10
2018-05-27T16:34:05.998Z,66.30
2018-05-27T16:36:42.212Z,67.40
2018-05-27T16:39:13.760Z,67.30
2018-05-27T16:41:45.825Z,68.40
2018-05-27T16:44:17.461Z,68.90
2018-05-27T16:46:49.914Z,69.60
2018-05-27T16:49:23.314Z,69.60
2018-05-27T16:51:54.253Z,69.00
2018-05-27T16:54:24.615Z,69.00
2018-05-27T16:56:55.867Z,69.50
2018-05-27T16:59:29.114Z,70.00
2018-05-27T17:04:32.752Z,70.00
2018-05-27T17:07:05.926Z,70.70
2018-05-27T17:09:38.648Z,71.50
2018-05-27T17:12:10.777Z,71.10
2018-05-27T17:14:42.168Z,71.50
2018-05-27T17:17:13.327Z,71.70
2018-05-27T17:19:44.853Z,71.00
2018-05-27T17:22:18.357Z,69.50
2018-05-27T17:24:49.044Z,68.50
2018-05-27T17:27:22.385Z,68.00
2018-05-27T17:29:59.528Z,67.60
2018-05-27T17:32:32.668Z,67.10
2018-05-27T17:35:06.601Z,66.40
2018-05-27T17:37:40.888Z,66.50
2018-05-27T17:40:11.281Z,65.80
2018-05-27T17:42:44.703Z,64.40
2018-05-27T17:45:18.736Z,65.80
2018-05-27T17:47:51.110Z,67.00
2018-05-27T18:23:39.840Z,62.20
2018-05-27T18:33:58.680Z,65.20
2018-05-27T18:36:33.080Z,65.50
2018-05-27T18:39:09.804Z,66.20
2018-05-27T18:41:43.096Z,65.20
2018-05-27T18:44:15.222Z,62.60
2018-05-27T18:46:49.458Z,61.30
2018-05-27T18:49:21.945Z,60.70
2018-05-27T18:54:29.253Z,62.10
2018-05-27T18:57:01.720Z,62.20
2018-05-27T18:59:32.879Z,62.90
2018-05-27T19:02:04.830Z,63.80
2018-05-27T19:04:38.176Z,63.50
2018-05-27T19:07:09.545Z,63.90
2018-05-27T19:09:44.599Z,63.30
2018-05-27T19:35:08.445Z,61.80
2018-05-27T19:37:39.561Z,61.70
2018-05-27T19:40:12.688Z,60.50
2018-05-27T19:42:45.604Z,59.60
2018-05-27T19:45:19.476Z,60.40
2018-05-27T19:47:51.648Z,61.40
2018-05-27T19:50:24.860Z,62.00
2018-05-27T21:46:42.070Z,73.70
2018-05-27T22:09:25.834Z,75.40
2018-05-27T22:54:41.387Z,76.40
2018-05-27T22:57:11.811Z,76.70
2018-05-27T22:59:42.189Z,77.00
2018-05-27T23:02:12.643Z,77.20
2018-05-27T23:04:43.067Z,77.60
2018-05-27T23:07:13.715Z,77.80
2018-05-27T23:09:43.655Z,77.90
2018-05-27T23:12:13.983Z,77.90
2018-05-27T23:14:44.299Z,78.00
2018-05-27T23:17:14.748Z,78.30
2018-05-27T23:19:44.672Z,78.50
2018-05-27T23:22:15.069Z,78.40
2018-05-27T23:24:45.406Z,78.60
2018-05-27T23:27:15.751Z,78.70
2018-05-27T23:29:47.192Z,78.80
2018-05-27T23:32:17.599Z,78.90
2018-05-27T23:34:47.987Z,79.00
2018-05-27T23:37:18.387Z,79.10
2018-05-27T23:39:49.508Z,79.10
2018-05-27T23:42:19.899Z,79.50
2018-05-27T23:44:50.167Z,79.80
2018-05-27T23:47:20.583Z,80.10
2018-05-27T23:49:50.895Z,80.20
2018-05-27T23:52:21.331Z,80.30
2018-05-27T23:54:52.197Z,80.30
2018-05-27T23:57:22.563Z,80.50
